Time;durP1;ratioP1;P1;durP2;ratioP2;P2;SDS_P1;SDS_P2;PMS_P1;PMS_P2;Temp;Humidity;BMP_temperature;BMP_pressure;BME280_temperature;BME280_humidity;BME280_pressure;Samples;Min_cycle;Max_cycle;Signal;HPM_P1;HPM_P2
2022/08/27 00:00:45;;;;;;;0.00;0.00;;;14.80;99.10;;;;;;5102979;28;20040;-73
2022/08/27 00:03:12;;;;;;;0.00;0.00;;;14.70;99.80;;;;;;5103004;28;20107;-73
2022/08/27 00:05:39;;;;;;;0.00;0.00;;;14.60;97.50;;;;;;5105273;28;20028;-73
2022/08/27 00:08:06;;;;;;;8.40;2.65;;;14.70;99.90;;;;;;5105060;28;20525;-73
2022/08/27 00:10:33;;;;;;;0.00;0.00;;;14.60;99.90;;;;;;5102952;28;20461;-73
2022/08/27 00:13:00;;;;;;;0.00;0.00;;;14.70;99.70;;;;;;5105315;28;20081;-73
2022/08/27 00:15:27;;;;;;;0.00;0.00;;;14.60;99.90;;;;;;5105204;28;20020;-73
2022/08/27 00:17:53;;;;;;;0.00;0.00;;;14.80;96.10;;;;;;5100115;28;20036;-74
2022/08/27 00:20:22;;;;;;;0.00;0.00;;;14.80;93.80;;;;;;5103588;28;20103;-74
2022/08/27 00:22:48;;;;;;;0.00;0.00;;;14.80;94.20;;;;;;5103466;28;20035;-74
2022/08/27 00:25:15;;;;;;;0.55;0.55;;;14.60;93.70;;;;;;5096656;28;20032;-72
2022/08/27 00:27:41;;;;;;;0.00;0.00;;;14.60;96.30;;;;;;5103918;28;20028;-73
2022/08/27 00:30:11;;;;;;;0.00;0.00;;;14.50;96.60;;;;;;5104794;28;20024;-72
2022/08/27 00:32:39;;;;;;;0.00;0.00;;;14.50;94.10;;;;;;5095568;28;20032;-72
2022/08/27 00:35:06;;;;;;;0.00;0.00;;;14.50;93.60;;;;;;5099140;28;20354;-73
2022/08/27 00:37:33;;;;;;;0.00;0.00;;;14.60;92.90;;;;;;5102856;28;20107;-73
2022/08/27 00:39:59;;;;;;;0.00;0.00;;;14.90;89.80;;;;;;5105040;28;20128;-73
2022/08/27 00:42:28;;;;;;;0.00;0.00;;;14.80;88.70;;;;;;5104362;28;20505;-73
2022/08/27 00:44:58;;;;;;;0.00;0.00;;;14.80;87.80;;;;;;5102537;28;20024;-72
2022/08/27 00:47:28;;;;;;;0.00;0.00;;;14.70;90.50;;;;;;5104219;28;20412;-72
2022/08/27 00:50:05;;;;;;;0.20;0.20;;;14.60;92.20;;;;;;5103608;28;20111;-73
2022/08/27 00:52:37;;;;;;;0.00;0.00;;;14.60;94.30;;;;;;5099173;28;20024;-73
2022/08/27 00:55:10;;;;;;;0.00;0.00;;;14.60;92.00;;;;;;5098057;28;20059;-73
2022/08/27 00:57:38;;;;;;;0.00;0.00;;;15.10;88.60;;;;;;5097272;28;20031;-73
2022/08/27 01:00:08;;;;;;;0.00;0.00;;;15.40;83.10;;;;;;5098212;28;20109;-73
2022/08/27 01:02:36;;;;;;;0.00;0.00;;;15.40;79.90;;;;;;5100132;28;20024;-73
2022/08/27 01:05:15;;;;;;;0.00;0.00;;;15.50;77.50;;;;;;5103003;28;20034;-73
2022/08/27 01:07:46;;;;;;;0.00;0.00;;;16.00;77.60;;;;;;5103756;28;20111;-73
2022/08/27 01:10:15;;;;;;;0.00;0.00;;;16.20;75.30;;;;;;5101460;28;20024;-74
2022/08/27 01:12:42;;;;;;;0.00;0.00;;;16.60;72.50;;;;;;5100869;28;20133;-73
2022/08/27 01:15:11;;;;;;;0.00;0.00;;;17.00;69.80;;;;;;5102936;28;20030;-73
2022/08/27 01:17:41;;;;;;;0.00;0.00;;;17.50;69.80;;;;;;5103544;28;20028;-72
2022/08/27 01:20:20;;;;;;;0.00;0.00;;;17.80;66.40;;;;;;5101679;28;20020;-73
2022/08/27 01:22:52;;;;;;;0.00;0.00;;;18.30;64.90;;;;;;5102629;28;20028;-73
2022/08/27 01:25:20;;;;;;;0.00;0.00;;;18.80;63.60;;;;;;5104805;28;20107;-73
2022/08/27 01:27:47;;;;;;;0.00;0.00;;;19.50;59.70;;;;;;5103091;28;20449;-73
2022/08/27 01:30:17;;;;;;;0.00;0.00;;;20.10;59.50;;;;;;5108285;28;20027;-73
2022/08/27 01:32:44;;;;;;;0.00;0.00;;;20.90;57.30;;;;;;5100757;28;20367;-72
2022/08/27 01:35:13;;;;;;;0.55;0.55;;;21.90;53.30;;;;;;5102908;28;20012;-73
2022/08/27 01:37:40;;;;;;;0.00;0.00;;;22.40;52.30;;;;;;5098878;28;20024;-73
2022/08/27 01:40:14;;;;;;;0.00;0.00;;;23.30;53.20;;;;;;5117559;27;20024;-73
2022/08/27 01:42:44;;;;;;;0.00;0.00;;;23.30;50.90;;;;;;5100883;28;20066;-73
2022/08/27 01:45:18;;;;;;;0.00;0.00;;;23.60;50.20;;;;;;5102561;28;20024;-73
2022/08/27 01:47:46;;;;;;;0.00;0.00;;;23.80;49.40;;;;;;5103064;28;20072;-74
2022/08/27 01:50:34;;;;;;;2.47;2.38;;;23.40;47.20;;;;;;5105832;28;20032;-74
2022/08/27 01:53:07;;;;;;;0.00;0.00;;;23.50;46.80;;;;;;5103313;28;20453;-73
2022/08/27 01:55:34;;;;;;;0.22;0.22;;;23.20;46.30;;;;;;5101911;28;20027;-73
2022/08/27 01:58:00;;;;;;;0.00;0.00;;;23.20;44.60;;;;;;5102542;28;20031;-73
2022/08/27 02:00:29;;;;;;;0.00;0.00;;;23.30;46.00;;;;;;5099467;28;20077;-73
2022/08/27 02:02:57;;;;;;;0.00;0.00;;;23.80;48.30;;;;;;5098149;28;20023;-73
2022/08/27 02:05:24;;;;;;;0.00;0.00;;;25.00;45.70;;;;;;5103028;28;20077;-73
2022/08/27 02:07:51;;;;;;;0.00;0.00;;;25.10;44.20;;;;;;5100165;28;20404;-73
2022/08/27 02:10:21;;;;;;;0.00;0.00;;;26.10;43.90;;;;;;5100977;28;20104;-73
2022/08/27 02:12:48;;;;;;;0.20;0.20;;;27.00;41.30;;;;;;5101811;28;20051;-73
2022/08/27 02:15:14;;;;;;;0.10;0.00;;;26.40;38.80;;;;;;5094261;28;20115;-74
2022/08/27 02:17:41;;;;;;;0.00;0.00;;;26.10;39.30;;;;;;5100105;28;20069;-73
2022/08/27 02:20:09;;;;;;;0.00;0.00;;;26.40;38.40;;;;;;5097562;28;20020;-73
2022/08/27 02:22:36;;;;;;;0.00;0.00;;;26.80;38.60;;;;;;5099245;28;20458;-73
2022/08/27 02:25:05;;;;;;;0.40;0.40;;;27.90;38.20;;;;;;5101493;28;20055;-73
2022/08/27 02:27:32;;;;;;;1.85;1.75;;;27.80;36.10;;;;;;5101959;28;20458;-73
2022/08/27 02:29:58;;;;;;;0.00;0.00;;;27.40;37.40;;;;;;5101940;28;20040;-72
2022/08/27 02:32:25;;;;;;;0.40;0.30;;;26.90;36.50;;;;;;5099224;28;20113;-73
2022/08/27 02:34:51;;;;;;;0.70;0.35;;;26.80;36.10;;;;;;5102270;28;20466;-73
2022/08/27 02:37:17;;;;;;;0.00;0.00;;;26.70;37.00;;;;;;5101722;28;20030;-73
2022/08/27 02:39:43;;;;;;;39.80;5.40;;;26.30;36.60;;;;;;5094825;28;20466;-73
2022/08/27 02:42:09;;;;;;;0.50;0.50;;;26.40;35.90;;;;;;5102157;28;20102;-72
2022/08/27 02:44:36;;;;;;;0.45;0.38;;;26.00;39.90;;;;;;5103072;28;20077;-73
2022/08/27 02:47:02;;;;;;;0.52;0.38;;;26.10;38.70;;;;;;5102145;28;20077;-73
2022/08/27 02:49:29;;;;;;;1.40;0.65;;;26.10;39.40;;;;;;5098406;28;20040;-73
2022/08/27 02:51:57;;;;;;;0.10;0.10;;;25.60;40.30;;;;;;5098753;28;20103;-73
2022/08/27 02:54:24;;;;;;;0.65;0.65;;;25.60;40.90;;;;;;5100549;28;20076;-73
2022/08/27 02:56:51;;;;;;;0.80;0.77;;;25.60;39.90;;;;;;5097980;28;20030;-73
2022/08/27 02:59:21;;;;;;;5.68;1.15;;;25.70;37.20;;;;;;5102172;28;20497;-73
2022/08/27 03:01:47;;;;;;;1.70;1.08;;;25.10;38.80;;;;;;5097390;28;20185;-73
2022/08/27 03:04:14;;;;;;;0.77;0.45;;;24.00;41.60;;;;;;5094976;28;20028;-73
2022/08/27 03:06:40;;;;;;;3.10;2.28;;;24.00;44.00;;;;;;5097111;28;20031;-73
2022/08/27 03:09:09;;;;;;;0.22;0.22;;;23.60;44.60;;;;;;5095918;28;20032;-72
2022/08/27 03:11:35;;;;;;;2.17;1.65;;;22.70;47.00;;;;;;5095185;28;20062;-73
2022/08/27 03:14:01;;;;;;;16.23;2.45;;;22.80;46.00;;;;;;5095079;28;20356;-72
2022/08/27 03:16:28;;;;;;;1.27;0.60;;;22.40;47.40;;;;;;5091272;28;20047;-73
2022/08/27 03:18:54;;;;;;;0.63;0.47;;;22.70;47.50;;;;;;5098397;28;20391;-73
2022/08/27 03:21:24;;;;;;;0.85;0.85;;;22.80;46.90;;;;;;5097523;28;20041;-73
2022/08/27 03:23:51;;;;;;;3.60;1.25;;;22.80;46.20;;;;;;5101148;28;20510;-73
2022/08/27 03:26:18;;;;;;;0.65;0.65;;;22.70;46.50;;;;;;5099413;28;20058;-73
2022/08/27 03:28:45;;;;;;;11.10;4.18;;;22.50;46.50;;;;;;5100044;28;20020;-72
2022/08/27 03:31:25;;;;;;;0.35;0.35;;;22.50;46.70;;;;;;5103635;28;20024;-72
2022/08/27 03:33:53;;;;;;;2.67;1.15;;;22.30;46.10;;;;;;5100996;28;20028;-73
2022/08/27 03:36:20;;;;;;;1.40;1.00;;;22.50;45.50;;;;;;5099798;28;20073;-72
2022/08/27 03:38:46;;;;;;;1.17;1.05;;;22.70;44.60;;;;;;5100960;28;20030;-72
2022/08/27 03:41:13;;;;;;;0.38;0.38;;;22.50;43.90;;;;;;5098617;28;20066;-73
2022/08/27 03:43:39;;;;;;;0.35;0.35;;;22.50;43.30;;;;;;5097884;28;20415;-72
2022/08/27 03:46:07;;;;;;;3.60;0.73;;;22.80;42.10;;;;;;5099718;28;20028;-73
2022/08/27 03:48:34;;;;;;;2.33;0.93;;;22.90;39.10;;;;;;5099241;28;20441;-71
2022/08/27 03:51:09;;;;;;;3.17;0.75;;;22.80;39.10;;;;;;5105557;28;20050;-72
2022/08/27 03:53:38;;;;;;;0.25;0.20;;;22.90;38.70;;;;;;5102625;28;20419;-73
2022/08/27 03:56:05;;;;;;;0.30;0.28;;;23.00;38.50;;;;;;5099121;28;20048;-72
2022/08/27 03:58:32;;;;;;;1.80;1.67;;;23.20;38.20;;;;;;5092077;28;20024;-73
2022/08/27 04:00:59;;;;;;;0.95;0.30;;;23.30;37.60;;;;;;5096888;28;20023;-72
2022/08/27 04:03:25;;;;;;;0.22;0.13;;;23.30;37.30;;;;;;5099932;28;20043;-72
2022/08/27 04:05:52;;;;;;;0.03;0.03;;;23.50;37.50;;;;;;5095793;28;20024;-72
2022/08/27 04:08:20;;;;;;;0.63;0.30;;;23.40;37.20;;;;;;5101336;28;20035;-74
2022/08/27 04:10:46;;;;;;;2.40;0.85;;;23.50;37.20;;;;;;5095001;28;20046;-73
2022/08/27 04:13:12;;;;;;;4.43;0.88;;;23.60;37.00;;;;;;5101589;28;20024;-73
2022/08/27 04:15:43;;;;;;;0.03;0.03;;;23.50;37.50;;;;;;5100280;28;20135;-72
2022/08/27 04:18:11;;;;;;;0.00;0.00;;;23.60;36.90;;;;;;5100076;28;20020;-73
2022/08/27 04:20:39;;;;;;;0.00;0.00;;;23.90;37.40;;;;;;5103419;28;20031;-72
2022/08/27 04:23:05;;;;;;;0.73;0.73;;;24.10;36.90;;;;;;5097495;28;20746;-73
2022/08/27 04:25:32;;;;;;;1.30;0.73;;;24.20;35.50;;;;;;5097727;28;20145;-73
2022/08/27 04:27:58;;;;;;;3.35;1.23;;;24.20;35.50;;;;;;5099561;28;20597;-73
2022/08/27 04:30:24;;;;;;;0.95;0.82;;;24.40;36.20;;;;;;5102313;28;20481;-73
2022/08/27 04:32:50;;;;;;;1.90;1.80;;;24.40;36.80;;;;;;5095777;28;20493;-73
2022/08/27 04:35:16;;;;;;;0.30;0.30;;;24.60;37.40;;;;;;5099602;28;20028;-73
2022/08/27 04:37:43;;;;;;;0.20;0.15;;;24.60;36.90;;;;;;5101716;28;20098;-73
2022/08/27 04:40:09;;;;;;;1.15;0.98;;;24.60;36.80;;;;;;5096317;28;20042;-73
2022/08/27 04:42:36;;;;;;;0.20;0.20;;;24.60;36.70;;;;;;5098633;28;20024;-72
2022/08/27 04:45:03;;;;;;;1.55;1.23;;;24.60;36.90;;;;;;5097562;28;20111;-73
2022/08/27 04:47:29;;;;;;;1.35;0.77;;;24.60;36.90;;;;;;5092516;28;20111;-73
2022/08/27 04:49:56;;;;;;;0.00;0.00;;;24.70;37.60;;;;;;5098958;28;20062;-72
2022/08/27 04:52:22;;;;;;;4.68;1.25;;;24.70;36.40;;;;;;5098145;28;20020;-73
2022/08/27 04:54:48;;;;;;;0.20;0.17;;;24.70;35.00;;;;;;5100862;28;20019;-73
2022/08/27 04:57:14;;;;;;;2.63;0.50;;;24.70;36.20;;;;;;5100054;28;20015;-72
2022/08/27 04:59:40;;;;;;;1.30;0.77;;;24.70;36.00;;;;;;5099278;28;20221;-74
2022/08/27 05:02:10;;;;;;;1.55;0.80;;;24.70;35.60;;;;;;5097840;28;20028;-73
2022/08/27 05:04:38;;;;;;;3.17;1.05;;;24.70;35.50;;;;;;5098441;28;20032;-73
2022/08/27 05:07:06;;;;;;;1.25;0.75;;;24.70;36.00;;;;;;5101075;28;20061;-73
2022/08/27 05:09:33;;;;;;;2.40;2.03;;;24.80;35.90;;;;;;5096566;28;20466;-73
2022/08/27 05:12:00;;;;;;;2.45;1.65;;;25.00;36.20;;;;;;5094038;28;20473;-74
2022/08/27 05:14:29;;;;;;;2.58;1.38;;;25.10;35.50;;;;;;5100348;28;20054;-72
2022/08/27 05:16:56;;;;;;;1.13;0.17;;;25.20;34.70;;;;;;5101248;28;20027;-74
2022/08/27 05:19:23;;;;;;;0.38;0.38;;;25.20;35.50;;;;;;5097713;28;20024;-72
2022/08/27 05:21:52;;;;;;;0.50;0.40;;;25.20;36.10;;;;;;5099229;28;20067;-72
2022/08/27 05:24:18;;;;;;;0.85;0.30;;;25.40;35.00;;;;;;5109008;28;20131;-72
2022/08/27 05:26:45;;;;;;;0.50;0.50;;;25.50;35.30;;;;;;5098563;28;20069;-72
2022/08/27 05:29:12;;;;;;;0.20;0.20;;;25.40;34.60;;;;;;5093840;28;20102;-72
2022/08/27 05:31:39;;;;;;;0.00;0.00;;;25.30;37.20;;;;;;5100663;28;20096;-73
2022/08/27 05:34:05;;;;;;;0.50;0.50;;;25.40;37.60;;;;;;5104487;28;20027;-74
2022/08/27 05:36:34;;;;;;;0.03;0.00;;;25.40;37.70;;;;;;5100583;28;20043;-73
2022/08/27 05:39:02;;;;;;;0.57;0.40;;;25.40;37.00;;;;;;5098544;28;20377;-74
2022/08/27 05:41:30;;;;;;;1.25;0.57;;;25.50;37.30;;;;;;5101815;28;20023;-74
2022/08/27 05:44:00;;;;;;;0.80;0.60;;;25.20;37.80;;;;;;5118313;22;20055;-86
2022/08/27 05:46:27;;;;;;;0.40;0.40;;;25.10;38.20;;;;;;5081998;28;20476;-86
2022/08/27 05:48:57;;;;;;;1.00;0.47;;;25.10;39.00;;;;;;5106617;28;20019;-86
2022/08/27 05:51:35;;;;;;;0.52;0.32;;;25.30;40.40;;;;;;5099800;28;20024;-87
2022/08/27 05:54:05;;;;;;;2.47;1.65;;;25.30;39.80;;;;;;5106556;27;20073;-86
2022/08/27 05:56:34;;;;;;;0.17;0.10;;;25.30;39.60;;;;;;5110780;28;20443;-86
2022/08/27 06:01:49;;;;;;;0.50;0.47;;;25.40;39.00;;;;;;5104320;28;20027;-87
2022/08/27 06:04:16;;;;;;;1.58;1.48;;;25.50;38.50;;;;;;5105564;28;20034;-86
2022/08/27 06:06:44;;;;;;;0.57;0.40;;;25.40;38.20;;;;;;5111510;28;20034;-87
2022/08/27 06:09:13;;;;;;;2.92;2.05;;;25.40;36.20;;;;;;5083443;28;20032;-86
2022/08/27 06:11:39;;;;;;;0.10;0.08;;;25.50;35.00;;;;;;5104510;28;20094;-87
2022/08/27 06:14:07;;;;;;;0.30;0.30;;;25.60;33.10;;;;;;5105072;28;20050;-86
2022/08/27 06:16:34;;;;;;;0.25;0.25;;;25.50;34.20;;;;;;5104620;28;20484;-87
2022/08/27 06:19:00;;;;;;;7.20;0.70;;;25.50;33.30;;;;;;5077338;28;20064;-87
2022/08/27 06:21:27;;;;;;;0.10;0.10;;;25.70;32.60;;;;;;5093221;28;20016;-87
2022/08/27 06:23:53;;;;;;;0.05;0.05;;;25.60;33.30;;;;;;5093242;28;20031;-86
2022/08/27 06:26:22;;;;;;;6.28;2.63;;;25.80;34.70;;;;;;5078033;28;20133;-86
2022/08/27 06:28:49;;;;;;;0.30;0.17;;;25.70;34.90;;;;;;5093884;28;20059;-86
2022/08/27 06:31:18;;;;;;;0.00;0.00;;;25.90;34.20;;;;;;5107176;28;20024;-87
2022/08/27 06:33:45;;;;;;;6.78;5.05;;;25.70;34.10;;;;;;5114474;28;20483;-87
2022/08/27 06:36:14;;;;;;;0.00;0.00;;;25.90;34.10;;;;;;5111254;28;20030;-87
2022/08/27 06:38:44;;;;;;;0.85;0.30;;;25.70;33.30;;;;;;5095679;28;20020;-88
2022/08/27 06:41:13;;;;;;;0.20;0.20;;;25.80;33.80;;;;;;5111289;28;20489;-86
2022/08/27 06:43:41;;;;;;;3.00;0.55;;;25.90;33.60;;;;;;5111672;28;20454;-87
2022/08/27 06:46:11;;;;;;;1.05;0.43;;;26.10;32.60;;;;;;5102873;28;20016;-87
2022/08/27 06:48:38;;;;;;;0.00;0.00;;;26.30;31.50;;;;;;5107682;28;20092;-88
2022/08/27 06:51:20;;;;;;;0.00;0.00;;;26.00;28.90;;;;;;5108469;28;20107;-87
2022/08/27 06:53:47;;;;;;;0.00;0.00;;;26.00;28.60;;;;;;5114027;28;20019;-86
2022/08/27 06:56:14;;;;;;;0.00;0.00;;;26.00;29.10;;;;;;5124807;28;20022;-87
2022/08/27 06:58:41;;;;;;;0.00;0.00;;;26.10;30.30;;;;;;5131929;28;20024;-87
2022/08/27 07:01:16;;;;;;;2.67;0.70;;;26.20;30.00;;;;;;5098925;28;20393;-87
2022/08/27 07:03:44;;;;;;;0.05;0.05;;;26.40;27.40;;;;;;5097263;28;20119;-87
2022/08/27 07:06:13;;;;;;;0.17;0.17;;;26.40;27.40;;;;;;5094671;28;20572;-87
2022/08/27 07:08:40;;;;;;;0.45;0.45;;;26.20;28.00;;;;;;5108115;28;20023;-86
2022/08/27 07:11:08;;;;;;;0.00;0.00;;;26.20;28.20;;;;;;5113369;28;20115;-87
2022/08/27 07:13:35;;;;;;;0.00;0.00;;;26.20;28.50;;;;;;5101840;27;20090;-87
2022/08/27 07:16:13;;;;;;;0.00;0.00;;;26.40;28.80;;;;;;5088015;28;20031;-87
2022/08/27 07:18:40;;;;;;;0.20;0.17;;;26.50;27.70;;;;;;5099480;28;20110;-88
2022/08/27 07:21:07;;;;;;;4.75;0.17;;;26.80;24.70;;;;;;5110161;28;20020;-90
2022/08/27 07:23:36;;;;;;;0.55;0.52;;;26.80;26.30;;;;;;5118355;28;20094;-87
2022/08/27 07:26:10;;;;;;;0.00;0.00;;;26.80;27.10;;;;;;5117558;28;20050;-87
2022/08/27 07:28:37;;;;;;;0.00;0.00;;;26.90;27.40;;;;;;5087898;28;20035;-88
2022/08/27 07:31:08;;;;;;;0.65;0.32;;;26.90;28.10;;;;;;5111982;27;20469;-88
2022/08/27 07:33:36;;;;;;;0.15;0.15;;;26.90;27.60;;;;;;5104500;27;20027;-86
2022/08/27 07:36:06;;;;;;;1.33;1.33;;;26.80;27.60;;;;;;5115977;28;20028;-86
2022/08/27 07:38:33;;;;;;;0.00;0.00;;;27.00;28.10;;;;;;5122078;28;20043;-89
2022/08/27 07:41:03;;;;;;;0.95;0.47;;;26.80;28.20;;;;;;5090789;28;20008;-86
2022/08/27 07:46:15;;;;;;;9.80;1.65;;;27.10;28.40;;;;;;5120481;28;20395;-86
2022/08/27 07:48:42;;;;;;;0.38;0.15;;;26.90;28.40;;;;;;5106622;27;20202;-86
2022/08/27 07:51:18;;;;;;;0.20;0.20;;;26.70;28.50;;;;;;5128458;28;20020;-88
2022/08/27 07:53:45;;;;;;;0.43;0.30;;;27.00;27.90;;;;;;5112313;28;20040;-86
2022/08/27 07:56:12;;;;;;;0.70;0.70;;;26.90;28.10;;;;;;5121002;28;20031;-86
2022/08/27 07:58:40;;;;;;;0.00;0.00;;;27.00;27.50;;;;;;5086612;28;20148;-87
2022/08/27 08:01:06;;;;;;;0.00;0.00;;;27.10;28.20;;;;;;5114213;28;20027;-85
2022/08/27 08:03:32;;;;;;;0.00;0.00;;;27.40;27.80;;;;;;5108529;28;20106;-87
2022/08/27 08:06:08;;;;;;;0.50;0.40;;;27.40;27.30;;;;;;5111024;27;20023;-87
2022/08/27 08:08:36;;;;;;;0.70;0.32;;;27.50;27.20;;;;;;5086787;28;20028;-87
2022/08/27 08:11:02;;;;;;;0.38;0.20;;;27.50;27.50;;;;;;5093817;28;20038;-88
2022/08/27 08:13:30;;;;;;;0.55;0.30;;;27.40;27.50;;;;;;5083229;28;20477;-87
2022/08/27 08:15:58;;;;;;;0.55;0.20;;;27.30;27.10;;;;;;5085183;27;20111;-88
2022/08/27 08:18:27;;;;;;;0.10;0.03;;;27.30;27.10;;;;;;5106400;27;20405;-88
2022/08/27 08:20:59;;;;;;;0.70;0.40;;;27.10;27.20;;;;;;5096327;28;20030;-88
2022/08/27 08:23:26;;;;;;;3.08;1.73;;;27.10;27.70;;;;;;5098732;28;20027;-88
2022/08/27 08:25:52;;;;;;;0.50;0.43;;;27.50;27.60;;;;;;5098736;28;20031;-85
2022/08/27 08:28:19;;;;;;;0.00;0.00;;;27.50;27.30;;;;;;5090316;28;20030;-88
2022/08/27 08:30:46;;;;;;;0.28;0.28;;;27.50;27.40;;;;;;5109582;28;20469;-89
2022/08/27 08:33:12;;;;;;;0.38;0.13;;;27.60;27.40;;;;;;5089473;28;20038;-87
2022/08/27 08:35:39;;;;;;;0.00;0.00;;;27.60;26.90;;;;;;5097856;28;20016;-88
2022/08/27 08:38:06;;;;;;;0.73;0.35;;;27.60;26.80;;;;;;5097532;28;20020;-87
2022/08/27 08:40:34;;;;;;;0.20;0.20;;;27.90;27.20;;;;;;5097652;28;20561;-88
2022/08/27 08:43:01;;;;;;;0.00;0.00;;;27.60;27.00;;;;;;5097333;28;20069;-88
2022/08/27 08:45:33;;;;;;;0.00;0.00;;;27.70;26.80;;;;;;5096808;28;20366;-88
2022/08/27 08:48:11;;;;;;;0.00;0.00;;;27.70;26.90;;;;;;5111953;28;20024;-89
2022/08/27 08:50:55;;;;;;;0.00;0.00;;;28.00;27.80;;;;;;5091226;28;20022;-88
2022/08/27 08:53:50;;;;;;;0.20;0.20;;;28.10;27.20;;;;;;5090683;28;20109;-88
2022/08/27 08:56:33;;;;;;;0.00;0.00;;;28.10;26.90;;;;;;5114836;28;20019;-88
2022/08/27 08:59:08;;;;;;;0.38;0.35;;;28.10;26.80;;;;;;5105617;28;20039;-89
2022/08/27 09:01:34;;;;;;;0.40;0.30;;;28.30;26.10;;;;;;5108699;28;20057;-88
2022/08/27 09:04:03;;;;;;;0.10;0.10;;;28.00;25.70;;;;;;5126860;28;20019;-88
2022/08/27 09:06:54;;;;;;;0.98;0.55;;;27.80;25.90;;;;;;5133684;28;20050;-87
2022/08/27 09:09:47;;;;;;;0.00;0.00;;;27.80;25.70;;;;;;5105080;28;20032;-88
2022/08/27 09:12:25;;;;;;;0.70;0.13;;;27.80;26.00;;;;;;5110572;28;20019;-88
2022/08/27 09:14:53;;;;;;;0.17;0.17;;;27.70;25.90;;;;;;5105156;28;20099;-87
2022/08/27 09:17:20;;;;;;;3.20;2.35;;;27.60;26.10;;;;;;5102030;28;20023;-87
2022/08/27 09:19:46;;;;;;;0.30;0.28;;;27.70;25.60;;;;;;5114226;28;20024;-87
2022/08/27 09:22:45;;;;;;;1.80;0.45;;;27.60;25.70;;;;;;5094417;28;20120;-88
2022/08/27 09:25:24;;;;;;;0.40;0.40;;;27.60;25.90;;;;;;5105510;28;20142;-87
2022/08/27 09:27:53;;;;;;;0.00;0.00;;;27.70;25.70;;;;;;5099313;28;20055;-87
2022/08/27 09:30:26;;;;;;;0.00;0.00;;;27.80;25.80;;;;;;5121416;28;20024;-87
2022/08/27 09:32:55;;;;;;;0.85;0.30;;;27.90;26.20;;;;;;5104477;28;20044;-88
2022/08/27 09:35:25;;;;;;;1.13;0.82;;;28.00;25.40;;;;;;5109923;28;20000;-89
2022/08/27 09:37:54;;;;;;;1.33;0.52;;;27.80;25.10;;;;;;5110690;28;20024;-87
2022/08/27 09:40:37;;;;;;;0.17;0.17;;;27.50;25.10;;;;;;5124117;28;20030;-87
2022/08/27 09:43:18;;;;;;;0.85;0.30;;;27.50;25.30;;;;;;5130163;28;20047;-87
2022/08/27 09:45:51;;;;;;;1.35;0.47;;;27.40;25.50;;;;;;5107997;28;20048;-86
2022/08/27 09:48:25;;;;;;;0.05;0.05;;;27.40;25.50;;;;;;5087721;28;20033;-86
2022/08/27 09:51:00;;;;;;;5.22;1.55;;;27.40;25.40;;;;;;5084523;28;20074;-86
2022/08/27 09:53:58;;;;;;;0.20;0.10;;;27.50;25.40;;;;;;5085617;28;20078;-87
2022/08/27 09:56:33;;;;;;;0.00;0.00;;;27.40;25.30;;;;;;5088107;28;20020;-87
2022/08/27 09:59:11;;;;;;;0.00;0.00;;;27.40;25.30;;;;;;5090609;28;20083;-87
2022/08/27 10:02:15;;;;;;;0.10;0.10;;;27.60;25.80;;;;;;5092317;28;20024;-87
2022/08/27 10:04:51;;;;;;;0.08;0.03;;;27.70;26.00;;;;;;5095443;28;20036;-86
2022/08/27 10:07:30;;;;;;;0.10;0.10;;;27.80;25.40;;;;;;5091207;28;20036;-87
2022/08/27 10:10:20;;;;;;;0.75;0.75;;;27.70;25.80;;;;;;5092645;28;20020;-86
2022/08/27 10:12:58;;;;;;;0.00;0.00;;;27.70;26.30;;;;;;5090116;28;20362;-87
2022/08/27 10:15:29;;;;;;;3.00;2.55;;;27.70;25.80;;;;;;5088377;28;20016;-89
2022/08/27 10:18:13;;;;;;;1.15;0.40;;;27.80;26.10;;;;;;5091305;28;20080;-87
2022/08/27 10:21:12;;;;;;;0.10;0.10;;;27.70;26.70;;;;;;5089090;28;20107;-88
2022/08/27 10:24:05;;;;;;;0.22;0.17;;;27.90;27.30;;;;;;5085755;28;20052;-86
2022/08/27 10:26:51;;;;;;;0.10;0.10;;;27.80;27.40;;;;;;5083917;28;20025;-86
2022/08/27 10:29:33;;;;;;;0.00;0.00;;;27.60;27.50;;;;;;5086453;28;20181;-86
2022/08/27 10:32:25;;;;;;;0.45;0.28;;;27.60;27.20;;;;;;5086874;28;20028;-87
2022/08/27 10:35:09;;;;;;;0.90;0.75;;;27.70;27.40;;;;;;5090241;28;20035;-86
2022/08/27 10:37:58;;;;;;;0.00;0.00;;;27.70;28.00;;;;;;5096891;28;20374;-87
2022/08/27 10:40:35;;;;;;;0.20;0.20;;;27.70;28.00;;;;;;5093047;28;20420;-88
2022/08/27 10:43:24;;;;;;;1.08;0.65;;;27.70;28.50;;;;;;5095923;28;20067;-87
2022/08/27 10:46:02;;;;;;;0.52;0.20;;;27.60;29.00;;;;;;5111374;27;20086;-87
2022/08/27 10:48:40;;;;;;;0.00;0.00;;;27.40;28.30;;;;;;5114223;27;20073;-87
2022/08/27 10:51:07;;;;;;;0.25;0.25;;;27.30;28.90;;;;;;5095112;28;20396;-86
2022/08/27 10:54:06;;;;;;;0.00;0.00;;;27.30;29.40;;;;;;5110716;28;20062;-87
2022/08/27 10:56:58;;;;;;;0.17;0.17;;;27.40;29.40;;;;;;5111463;28;20532;-87
2022/08/27 10:59:43;;;;;;;0.00;0.00;;;27.50;29.50;;;;;;5065711;28;20038;-87
2022/08/27 11:02:45;;;;;;;0.32;0.20;;;27.40;28.90;;;;;;5109768;28;20019;-86
2022/08/27 11:05:31;;;;;;;0.00;0.00;;;27.50;29.10;;;;;;5062260;27;20612;-88
2022/08/27 11:08:10;;;;;;;0.00;0.00;;;27.50;28.90;;;;;;5093419;28;20472;-87
2022/08/27 11:10:41;;;;;;;0.00;0.00;;;27.40;28.60;;;;;;5107830;27;20024;-88
2022/08/27 11:13:16;;;;;;;0.95;0.40;;;27.40;28.50;;;;;;5099923;28;20015;-87
2022/08/27 11:15:47;;;;;;;0.45;0.45;;;27.40;28.60;;;;;;5118467;28;20023;-86
2022/08/27 11:18:35;;;;;;;0.00;0.00;;;27.30;28.90;;;;;;5118366;28;20027;-86
2022/08/27 11:21:43;;;;;;;0.10;0.10;;;27.30;29.40;;;;;;5116617;28;20478;-87
2022/08/27 11:24:15;;;;;;;0.00;0.00;;;27.40;29.20;;;;;;5115537;28;20043;-87
2022/08/27 11:26:43;;;;;;;0.00;0.00;;;27.20;28.70;;;;;;5097526;28;20027;-87
2022/08/27 11:29:42;;;;;;;0.00;0.00;;;27.30;28.70;;;;;;5112574;28;20034;-87
2022/08/27 11:32:23;;;;;;;0.15;0.10;;;27.30;28.20;;;;;;5096960;28;20427;-86
2022/08/27 11:35:05;;;;;;;0.00;0.00;;;27.40;28.60;;;;;;5109782;27;20035;-86
2022/08/27 11:37:51;;;;;;;0.10;0.10;;;27.30;28.80;;;;;;5111910;28;20061;-86
2022/08/27 11:40:53;;;;;;;0.10;0.10;;;27.20;29.40;;;;;;5115175;28;20008;-86
2022/08/27 11:43:23;;;;;;;0.00;0.00;;;27.20;29.50;;;;;;5091667;28;20059;-87
2022/08/27 11:45:59;;;;;;;0.00;0.00;;;27.30;29.40;;;;;;5113290;28;20073;-86
2022/08/27 11:48:41;;;;;;;0.00;0.00;;;27.30;29.20;;;;;;5112290;28;20027;-86
2022/08/27 11:51:13;;;;;;;0.00;0.00;;;27.30;29.20;;;;;;5104572;28;20024;-87
2022/08/27 11:53:42;;;;;;;0.00;0.00;;;27.30;29.40;;;;;;5123477;28;20055;-86
2022/08/27 11:56:40;;;;;;;0.00;0.00;;;27.20;29.50;;;;;;5090483;28;20032;-86
2022/08/27 11:59:28;;;;;;;0.00;0.00;;;27.20;30.00;;;;;;5105561;27;20023;-87
2022/08/27 12:02:08;;;;;;;3.20;3.08;;;27.10;30.20;;;;;;5113315;27;20024;-86
2022/08/27 12:04:38;;;;;;;0.00;0.00;;;27.20;30.20;;;;;;5093219;28;20047;-87
2022/08/27 12:07:13;;;;;;;0.00;0.00;;;27.20;29.90;;;;;;5092091;27;20024;-86
2022/08/27 12:09:53;;;;;;;0.00;0.00;;;27.20;29.90;;;;;;5094333;28;20477;-86
2022/08/27 12:12:59;;;;;;;0.00;0.00;;;27.10;30.10;;;;;;5089285;28;20028;-87
2022/08/27 12:15:45;;;;;;;0.00;0.00;;;27.10;29.90;;;;;;5086485;28;20031;-86
2022/08/27 12:18:42;;;;;;;0.00;0.00;;;27.10;30.30;;;;;;5091013;28;20046;-87
2022/08/27 12:21:36;;;;;;;0.00;0.00;;;27.00;30.70;;;;;;5105122;28;20088;-87
2022/08/27 12:24:13;;;;;;;0.00;0.00;;;27.00;31.20;;;;;;5095323;27;20040;-87
2022/08/27 12:26:55;;;;;;;0.00;0.00;;;26.90;31.20;;;;;;5104754;27;20024;-87
2022/08/27 12:29:39;;;;;;;0.00;0.00;;;26.80;32.00;;;;;;5087932;28;20442;-87
2022/08/27 12:32:38;;;;;;;0.00;0.00;;;26.70;31.70;;;;;;5109211;27;20038;-87
2022/08/27 12:35:15;;;;;;;0.00;0.00;;;26.70;31.60;;;;;;5107989;28;20027;-87
2022/08/27 12:37:52;;;;;;;0.00;0.00;;;26.70;31.90;;;;;;5112142;28;20012;-87
2022/08/27 12:40:28;;;;;;;0.00;0.00;;;26.80;32.20;;;;;;5111145;28;20028;-86
2022/08/27 12:43:06;;;;;;;0.00;0.00;;;26.80;32.50;;;;;;5089702;27;20377;-87
2022/08/27 12:45:40;;;;;;;0.00;0.00;;;26.80;33.10;;;;;;5110033;27;20046;-87
2022/08/27 12:48:08;;;;;;;0.00;0.00;;;26.70;33.60;;;;;;5116387;27;20019;-86
2022/08/27 12:50:35;;;;;;;1.90;1.80;;;26.50;33.30;;;;;;5111453;27;20461;-86
2022/08/27 12:53:08;;;;;;;0.00;0.00;;;26.60;32.50;;;;;;5090325;28;20047;-88
2022/08/27 12:55:53;;;;;;;2.05;1.95;;;26.60;33.00;;;;;;5088617;28;20088;-87
2022/08/27 12:58:50;;;;;;;0.17;0.17;;;26.60;33.00;;;;;;5111459;28;20024;-86
2022/08/27 13:01:16;;;;;;;0.00;0.00;;;26.50;33.90;;;;;;5111712;27;20107;-87
2022/08/27 13:03:48;;;;;;;0.00;0.00;;;26.50;33.20;;;;;;5107351;28;20251;-89
2022/08/27 13:06:35;;;;;;;0.00;0.00;;;26.50;33.60;;;;;;5128602;28;20068;-86
2022/08/27 13:09:05;;;;;;;0.30;0.30;;;26.40;33.60;;;;;;5116777;28;20015;-88
2022/08/27 13:11:44;;;;;;;0.00;0.00;;;26.40;33.60;;;;;;5131726;27;20032;-87
2022/08/27 13:14:14;;;;;;;0.00;0.00;;;26.30;33.50;;;;;;5114396;27;20019;-87
2022/08/27 13:17:04;;;;;;;0.00;0.00;;;26.30;33.80;;;;;;5114093;28;20031;-87